Lux, Mississippi
Current Conditions -  °F | °C
As of 8:53 AM on Friday 24 Oct 2014 (Local Time) from KHBG Reporting Station
Clear Clear  
Wind Chill: 55°   Ceiling: Unl
Heat Index: 55°   Visibility: 9mi
Dew Point: 50°   Wind: 6mph
Humidity: 83%   Direction: 300°WNW
Pressure: 30.14"   Gusts: NA
Location:  31.1996°N, 89.2694°W
Report Text: KHBG 241353Z AUTO 30005KT 9SM CLR 13/10 A3014 RMK AO2 SLP204 T01280100
Loading
Personal Weather Stations






























Interactive Weather Map
Tropical Storm Tracking
New forecast layout! Learn more

10-Day Weather Forecast

Advertisements
Track Severe Weather on mobile